Time;durP1;ratioP1;P1;durP2;ratioP2;P2;SDS_P1;SDS_P2;PMS_P1;PMS_P2;Temp;Humidity;BMP_temperature;BMP_pressure;BME280_temperature;BME280_humidity;BME280_pressure;Samples;Min_cycle;Max_cycle;Signal;HPM_P1;HPM_P2
2021/07/14 00:00:48;;;;;;;17.53;15.43;;;21.70;99.90;;;;;;6167436;23;20421;-75
2021/07/14 00:03:16;;;;;;;19.70;17.80;;;21.60;99.90;;;;;;6166250;23;20401;-75
2021/07/14 00:05:44;;;;;;;17.50;15.70;;;21.70;99.90;;;;;;6165682;23;20158;-75
2021/07/14 00:08:14;;;;;;;17.13;15.43;;;21.70;99.90;;;;;;6129985;23;20417;-76
2021/07/14 00:10:42;;;;;;;20.43;18.33;;;21.70;99.90;;;;;;6167341;23;20471;-75
2021/07/14 00:13:24;;;;;;;20.30;18.40;;;21.70;99.90;;;;;;6169377;23;20410;-75
2021/07/14 00:24:19;;;;;;;20.20;17.93;;;21.60;99.90;;;;;;6170955;23;20400;-75
2021/07/14 00:26:47;;;;;;;21.23;19.20;;;21.60;99.90;;;;;;6131306;23;20505;-75
2021/07/14 00:29:16;;;;;;;20.63;18.63;;;21.50;99.90;;;;;;6173151;23;20397;-75
2021/07/14 00:31:44;;;;;;;21.03;18.90;;;21.50;99.90;;;;;;6167563;23;20427;-75
2021/07/14 00:34:13;;;;;;;20.03;18.03;;;21.50;99.90;;;;;;6165806;23;20529;-76
2021/07/14 00:36:41;;;;;;;22.70;18.90;;;21.50;99.90;;;;;;6165456;23;20397;-76
2021/07/14 00:39:09;;;;;;;19.90;17.87;;;21.50;99.90;;;;;;6166519;23;20401;-75
2021/07/14 00:41:38;;;;;;;19.50;17.50;;;21.50;99.90;;;;;;6128856;23;20428;-76
2021/07/14 00:44:07;;;;;;;21.40;18.80;;;21.40;99.90;;;;;;6155635;23;20417;-76
2021/07/14 00:46:35;;;;;;;20.57;18.33;;;21.50;99.90;;;;;;6131485;23;20416;-76
2021/07/14 00:49:03;;;;;;;20.88;18.85;;;21.50;99.90;;;;;;6154541;23;20505;-75
2021/07/14 00:51:31;;;;;;;19.27;17.50;;;21.50;99.90;;;;;;6165713;23;20580;-76
2021/07/14 00:54:01;;;;;;;19.83;17.93;;;21.50;99.90;;;;;;6168109;23;20412;-76
2021/07/14 00:56:30;;;;;;;20.60;18.48;;;21.50;99.90;;;;;;6164258;23;20413;-75
2021/07/14 00:59:00;;;;;;;20.27;17.20;;;21.50;99.90;;;;;;6132079;23;20256;-75
2021/07/14 01:01:29;;;;;;;20.57;16.90;;;21.50;99.90;;;;;;6169862;23;20476;-76
2021/07/14 01:04:06;;;;;;;19.87;17.77;;;21.40;99.90;;;;;;6167298;23;20397;-76
2021/07/14 01:06:46;;;;;;;19.73;17.70;;;21.40;99.90;;;;;;6157076;23;20736;-75
2021/07/14 01:09:18;;;;;;;19.60;17.80;;;21.40;99.90;;;;;;6168920;23;20449;-75
2021/07/14 01:11:49;;;;;;;19.40;17.27;;;21.40;99.90;;;;;;6133757;23;20440;-75
2021/07/14 01:14:22;;;;;;;17.85;16.15;;;21.30;99.90;;;;;;6167843;23;20381;-76
2021/07/14 01:16:57;;;;;;;18.77;16.93;;;21.30;99.90;;;;;;6131792;23;20798;-76
2021/07/14 01:19:56;;;;;;;20.60;18.60;;;21.30;99.90;;;;;;6134708;23;20408;-75
2021/07/14 01:22:31;;;;;;;18.83;17.03;;;21.30;99.90;;;;;;6131602;23;20439;-76
2021/07/14 01:25:05;;;;;;;19.80;17.70;;;21.20;99.90;;;;;;6132794;23;20404;-75
2021/07/14 01:27:39;;;;;;;21.90;19.70;;;21.20;99.90;;;;;;6132325;23;20859;-76
2021/07/14 01:30:10;;;;;;;19.93;17.93;;;21.20;99.90;;;;;;6167236;23;20479;-76
2021/07/14 01:32:41;;;;;;;20.83;18.83;;;21.10;99.90;;;;;;6133809;23;20444;-75
2021/07/14 01:35:15;;;;;;;22.40;20.10;;;21.10;99.90;;;;;;6166956;23;20459;-75
2021/07/14 01:37:46;;;;;;;22.13;19.80;;;21.10;99.90;;;;;;6168241;23;20432;-75
2021/07/14 01:40:18;;;;;;;25.63;21.07;;;21.10;99.90;;;;;;6133227;23;20926;-76
2021/07/14 01:42:53;;;;;;;20.90;18.90;;;21.10;99.90;;;;;;6131960;23;20409;-76
2021/07/14 01:45:21;;;;;;;22.90;20.57;;;21.10;99.90;;;;;;6168780;23;20404;-76
2021/07/14 01:47:51;;;;;;;22.20;20.10;;;21.00;99.90;;;;;;6167284;23;20393;-75
2021/07/14 01:50:20;;;;;;;23.63;21.05;;;21.00;99.90;;;;;;6130210;23;20475;-75
2021/07/14 01:52:49;;;;;;;22.10;20.13;;;21.00;99.90;;;;;;6156771;23;20220;-75
2021/07/14 01:55:18;;;;;;;21.90;19.67;;;21.00;99.90;;;;;;6130711;23;20439;-75
2021/07/14 01:57:48;;;;;;;23.13;19.67;;;21.00;99.90;;;;;;6169059;23;20713;-75
2021/07/14 02:00:17;;;;;;;23.50;21.00;;;21.00;99.90;;;;;;6167089;23;20492;-75
2021/07/14 02:11:40;;;;;;;23.27;20.67;;;20.90;99.90;;;;;;6186559;23;20458;-70
2021/07/14 02:14:12;;;;;;;23.60;21.23;;;20.90;99.90;;;;;;6186660;23;20454;-70
2021/07/14 02:17:05;;;;;;;25.03;22.60;;;20.90;99.90;;;;;;6196949;23;20887;-70
2021/07/14 02:19:34;;;;;;;23.37;20.93;;;20.80;99.90;;;;;;6160103;23;20412;-70
2021/07/14 02:22:03;;;;;;;25.00;22.57;;;20.80;99.90;;;;;;6186774;23;20408;-70
2021/07/14 02:24:33;;;;;;;25.67;21.67;;;20.80;99.90;;;;;;6196949;23;20777;-70
2021/07/14 02:27:06;;;;;;;25.83;23.03;;;20.80;99.90;;;;;;6159928;23;20439;-70
2021/07/14 02:29:37;;;;;;;26.83;24.33;;;20.80;99.90;;;;;;6187245;23;20698;-70
2021/07/14 02:32:06;;;;;;;26.60;23.90;;;20.80;99.90;;;;;;6196137;23;20388;-70
2021/07/14 02:34:34;;;;;;;24.80;22.30;;;20.80;99.90;;;;;;6159830;23;20456;-70
2021/07/14 02:37:06;;;;;;;27.03;24.30;;;20.80;99.90;;;;;;6196201;23;20434;-70
2021/07/14 02:39:36;;;;;;;25.60;23.00;;;20.80;99.90;;;;;;6196408;23;20412;-70
2021/07/14 02:42:12;;;;;;;29.42;26.33;;;20.80;99.90;;;;;;6195794;23;20399;-70
2021/07/14 02:44:45;;;;;;;28.60;24.97;;;20.80;99.90;;;;;;6196134;23;20236;-70
2021/07/14 02:47:14;;;;;;;29.00;26.00;;;20.80;99.90;;;;;;6186461;23;20389;-70
2021/07/14 02:49:44;;;;;;;28.27;25.17;;;20.80;99.90;;;;;;6196042;23;20416;-70
2021/07/14 02:52:14;;;;;;;27.10;23.90;;;20.80;99.90;;;;;;6196431;23;20404;-70
2021/07/14 02:54:45;;;;;;;28.10;24.60;;;20.80;99.90;;;;;;6159739;23;20428;-70
2021/07/14 02:57:16;;;;;;;26.40;23.70;;;20.80;99.90;;;;;;6186634;23;20478;-70
2021/07/14 02:59:50;;;;;;;27.10;24.30;;;20.70;99.90;;;;;;6195975;23;20450;-70
2021/07/14 03:02:20;;;;;;;27.20;24.33;;;20.70;99.90;;;;;;6196748;23;20387;-70
2021/07/14 03:04:52;;;;;;;27.87;25.07;;;20.70;99.90;;;;;;6196726;23;20851;-70
2021/07/14 03:07:24;;;;;;;28.13;25.20;;;20.70;99.90;;;;;;6198259;23;20388;-70
2021/07/14 03:09:53;;;;;;;29.60;26.40;;;20.70;99.90;;;;;;6161089;23;20489;-70
2021/07/14 03:12:25;;;;;;;28.63;24.23;;;20.70;99.90;;;;;;6198027;23;20406;-70
2021/07/14 03:14:58;;;;;;;27.73;24.83;;;20.70;99.90;;;;;;6198948;23;20384;-70
2021/07/14 03:17:30;;;;;;;28.30;25.30;;;20.70;99.90;;;;;;6161464;23;20852;-70
2021/07/14 03:20:02;;;;;;;31.87;27.10;;;20.70;99.90;;;;;;6197931;23;20426;-70
2021/07/14 03:22:31;;;;;;;30.80;27.60;;;20.70;99.90;;;;;;6194795;23;20722;-70
2021/07/14 03:24:59;;;;;;;30.97;27.77;;;20.80;99.90;;;;;;6185825;23;20558;-70
2021/07/14 03:27:27;;;;;;;34.30;29.50;;;20.90;99.90;;;;;;6196174;23;20389;-70
2021/07/14 03:29:58;;;;;;;34.80;31.10;;;20.80;99.90;;;;;;6194469;23;20403;-70
2021/07/14 03:32:26;;;;;;;34.27;29.43;;;20.90;99.90;;;;;;6185695;23;20161;-70
2021/07/14 03:34:55;;;;;;;30.63;27.20;;;20.90;99.90;;;;;;6159215;23;20491;-70
2021/07/14 03:37:24;;;;;;;30.33;27.07;;;20.90;99.90;;;;;;6159191;23;21010;-70
2021/07/14 03:39:53;;;;;;;33.77;30.27;;;20.80;99.90;;;;;;6196504;23;20789;-70
2021/07/14 03:42:21;;;;;;;33.90;29.90;;;20.80;99.90;;;;;;6186085;23;20432;-70
2021/07/14 03:44:52;;;;;;;35.17;31.33;;;20.80;99.90;;;;;;6195811;23;20407;-70
2021/07/14 03:47:22;;;;;;;33.53;29.43;;;20.80;99.90;;;;;;6159554;23;20831;-70
2021/07/14 03:49:51;;;;;;;35.27;31.57;;;20.80;99.90;;;;;;6185590;23;20424;-70
2021/07/14 03:52:21;;;;;;;37.73;31.00;;;20.80;99.90;;;;;;6159443;23;20416;-70
2021/07/14 03:54:50;;;;;;;36.40;31.80;;;20.80;99.90;;;;;;6159321;23;20416;-70
2021/07/14 03:57:18;;;;;;;33.93;30.27;;;20.80;99.90;;;;;;6195398;23;20463;-70
2021/07/14 03:59:48;;;;;;;35.40;31.60;;;20.80;99.90;;;;;;6195882;23;20416;-70
2021/07/14 04:02:16;;;;;;;34.67;31.00;;;20.80;99.90;;;;;;6159047;23;20447;-70
2021/07/14 04:04:51;;;;;;;41.30;36.83;;;20.80;99.90;;;;;;6159767;23;20447;-70
2021/07/14 04:07:26;;;;;;;41.23;34.13;;;20.80;99.90;;;;;;6159259;23;20499;-70
2021/07/14 04:09:55;;;;;;;44.20;36.97;;;20.70;99.90;;;;;;6195455;23;20427;-70
2021/07/14 04:12:23;;;;;;;44.70;37.40;;;20.70;99.90;;;;;;6196363;23;20870;-70
2021/07/14 04:14:51;;;;;;;49.57;40.10;;;20.70;99.90;;;;;;6195389;23;20770;-70
2021/07/14 04:17:20;;;;;;;47.70;39.30;;;20.70;99.90;;;;;;6186280;23;20502;-70
2021/07/14 04:19:49;;;;;;;52.63;40.00;;;20.80;99.90;;;;;;6195109;23;20419;-70
2021/07/14 04:22:17;;;;;;;51.70;39.20;;;20.80;99.90;;;;;;6195368;23;20479;-70
2021/07/14 04:24:45;;;;;;;52.73;41.33;;;20.70;99.90;;;;;;6194759;23;20399;-70
2021/07/14 04:27:13;;;;;;;46.50;37.47;;;20.80;99.90;;;;;;6195752;23;20392;-70
2021/07/14 04:29:42;;;;;;;51.17;39.60;;;20.80;99.90;;;;;;6185780;23;20471;-70
2021/07/14 04:32:10;;;;;;;51.63;38.80;;;20.70;99.90;;;;;;6195525;23;20427;-70
2021/07/14 04:34:38;;;;;;;58.43;41.17;;;20.70;99.90;;;;;;6196398;23;20738;-70
2021/07/14 04:37:07;;;;;;;53.30;41.37;;;20.70;99.90;;;;;;6197361;23;20835;-70
2021/07/14 04:39:36;;;;;;;54.13;40.53;;;20.70;99.90;;;;;;6187704;23;20419;-70
2021/07/14 04:42:04;;;;;;;54.07;40.40;;;20.70;99.90;;;;;;6160997;23;20420;-70
2021/07/14 04:44:34;;;;;;;46.27;37.30;;;20.70;99.90;;;;;;6160929;23;20443;-70
2021/07/14 04:47:02;;;;;;;52.87;39.37;;;20.70;99.90;;;;;;6197407;23;20450;-70
2021/07/14 04:49:31;;;;;;;54.70;39.97;;;20.70;99.90;;;;;;6197959;23;20403;-70
2021/07/14 04:51:59;;;;;;;60.27;44.27;;;20.70;99.90;;;;;;6197628;23;20432;-70
2021/07/14 04:54:28;;;;;;;56.97;41.70;;;20.70;99.90;;;;;;6161004;23;20713;-70
2021/07/14 04:56:57;;;;;;;57.73;41.80;;;20.70;99.90;;;;;;6197268;23;20431;-70
2021/07/14 04:59:25;;;;;;;67.83;43.40;;;20.70;99.90;;;;;;6187515;23;20483;-70
2021/07/14 05:01:53;;;;;;;60.80;43.57;;;20.70;99.90;;;;;;6160955;23;20502;-70
2021/07/14 05:04:21;;;;;;;67.40;44.80;;;20.70;99.90;;;;;;6197927;23;20396;-70
2021/07/14 05:06:49;;;;;;;68.03;43.53;;;20.70;99.90;;;;;;6196892;23;20392;-70
2021/07/14 05:09:18;;;;;;;66.03;44.90;;;20.70;99.90;;;;;;6185341;23;20724;-70
2021/07/14 05:11:47;;;;;;;72.65;49.03;;;20.70;99.90;;;;;;6193449;23;20396;-69
2021/07/14 05:14:15;;;;;;;67.73;44.83;;;20.80;99.90;;;;;;6195494;23;20623;-69
2021/07/14 05:16:44;;;;;;;73.27;48.60;;;20.80;99.90;;;;;;6195582;23;20534;-70
2021/07/14 05:19:13;;;;;;;69.57;47.65;;;20.80;99.90;;;;;;6195638;23;20364;-70
2021/07/14 05:21:42;;;;;;;74.03;49.67;;;20.80;99.90;;;;;;6195521;23;20200;-70
2021/07/14 05:24:10;;;;;;;66.43;46.93;;;20.90;99.90;;;;;;6196073;23;20400;-70
2021/07/14 05:26:39;;;;;;;67.07;47.70;;;20.90;99.90;;;;;;6187292;23;20400;-70
2021/07/14 05:29:08;;;;;;;70.60;48.03;;;20.90;99.90;;;;;;6197264;23;20407;-70
2021/07/14 05:31:37;;;;;;;66.13;46.57;;;20.90;99.90;;;;;;6187776;23;20455;-69
2021/07/14 05:34:05;;;;;;;71.23;50.13;;;20.90;99.90;;;;;;6197278;23;20400;-70
2021/07/14 05:36:33;;;;;;;65.90;47.27;;;20.90;99.90;;;;;;6197814;23;20400;-70
2021/07/14 05:39:02;;;;;;;71.00;47.23;;;20.90;99.90;;;;;;6196959;23;20398;-70
2021/07/14 05:41:30;;;;;;;72.63;50.17;;;21.00;99.90;;;;;;6187001;23;20504;-70
2021/07/14 05:43:58;;;;;;;71.13;46.93;;;21.00;99.90;;;;;;6197491;23;20459;-70
2021/07/14 05:46:27;;;;;;;61.60;48.00;;;21.00;99.90;;;;;;6196501;23;20483;-70
2021/07/14 05:49:00;;;;;;;71.23;47.37;;;21.00;99.90;;;;;;6196824;23;20932;-70
2021/07/14 05:51:28;;;;;;;67.30;49.67;;;21.00;99.90;;;;;;6197084;23;20817;-70
2021/07/14 05:53:56;;;;;;;69.80;52.20;;;21.10;99.90;;;;;;6160377;23;20933;-70
2021/07/14 05:56:24;;;;;;;72.50;50.50;;;21.10;99.90;;;;;;6160722;23;20444;-70
2021/07/14 05:58:53;;;;;;;71.13;49.40;;;21.10;99.90;;;;;;6197247;23;20521;-70
2021/07/14 06:01:21;;;;;;;74.33;52.40;;;21.20;99.90;;;;;;6196910;23;20499;-70
2021/07/14 06:03:51;;;;;;;64.67;48.43;;;21.20;99.90;;;;;;6160351;23;20431;-70
2021/07/14 06:06:19;;;;;;;62.60;47.05;;;21.20;99.90;;;;;;6196885;23;20370;-70
2021/07/14 06:08:47;;;;;;;62.37;49.60;;;21.30;99.90;;;;;;6160357;23;20195;-70
2021/07/14 06:11:16;;;;;;;62.27;48.93;;;21.30;99.90;;;;;;6160253;23;20534;-69
2021/07/14 06:13:44;;;;;;;60.17;46.83;;;21.40;99.90;;;;;;6196886;23;20893;-69
2021/07/14 06:16:13;;;;;;;53.90;43.93;;;21.40;99.90;;;;;;6187112;23;20483;-70
2021/07/14 06:18:41;;;;;;;61.40;45.33;;;21.50;99.90;;;;;;6196472;23;20768;-69
2021/07/14 06:21:10;;;;;;;51.07;43.23;;;21.50;99.90;;;;;;6196607;23;20420;-69
2021/07/14 06:23:39;;;;;;;47.10;41.37;;;21.50;99.90;;;;;;6197340;23;20397;-68
2021/07/14 06:26:07;;;;;;;44.93;39.10;;;21.50;99.90;;;;;;6196581;23;20396;-69
2021/07/14 06:28:35;;;;;;;44.70;38.60;;;21.60;99.90;;;;;;6196395;23;20392;-69
2021/07/14 06:31:04;;;;;;;45.43;39.93;;;21.60;99.90;;;;;;6196964;23;20451;-70
2021/07/14 06:33:36;;;;;;;44.77;39.90;;;21.60;99.90;;;;;;6186974;23;20412;-69
2021/07/14 06:36:05;;;;;;;45.50;40.43;;;21.70;99.90;;;;;;6197132;23;20381;-69
2021/07/14 06:38:35;;;;;;;41.40;36.90;;;21.70;99.90;;;;;;6196696;23;20428;-69
2021/07/14 06:41:04;;;;;;;41.70;37.30;;;21.80;99.90;;;;;;6196516;23;20515;-69
2021/07/14 06:43:42;;;;;;;39.77;35.53;;;21.80;99.90;;;;;;6160094;23;20474;-69
2021/07/14 06:46:11;;;;;;;39.63;35.53;;;21.80;99.90;;;;;;6197150;23;20404;-71
2021/07/14 06:48:41;;;;;;;39.77;35.53;;;21.80;99.90;;;;;;6196320;23;20393;-69
2021/07/14 06:51:10;;;;;;;36.43;32.80;;;21.90;99.90;;;;;;6196327;23;20438;-69
2021/07/14 06:53:39;;;;;;;37.33;33.43;;;22.00;99.90;;;;;;6196164;23;20491;-69
2021/07/14 06:56:08;;;;;;;34.47;30.90;;;22.00;99.90;;;;;;6197019;23;20499;-68
2021/07/14 06:58:39;;;;;;;34.87;31.57;;;22.00;99.90;;;;;;6159393;23;20527;-69
2021/07/14 07:01:08;;;;;;;36.70;33.25;;;22.00;99.90;;;;;;6196019;23;20453;-69
2021/07/14 07:03:37;;;;;;;35.53;32.03;;;22.10;99.90;;;;;;6196131;23;20173;-69
2021/07/14 07:06:06;;;;;;;38.53;34.07;;;22.10;99.90;;;;;;6196191;23;20400;-69
2021/07/14 07:08:35;;;;;;;37.87;33.87;;;22.00;99.90;;;;;;6196363;23;20448;-69
2021/07/14 07:11:05;;;;;;;38.43;34.50;;;22.10;99.90;;;;;;6195097;23;20407;-69
2021/07/14 07:13:34;;;;;;;36.20;31.40;;;22.10;99.90;;;;;;6196514;23;20412;-69
2021/07/14 07:16:03;;;;;;;36.17;32.53;;;22.20;99.90;;;;;;6160113;23;20411;-69
2021/07/14 07:18:31;;;;;;;34.50;31.07;;;22.20;99.90;;;;;;6195967;23;20953;-69
2021/07/14 07:21:01;;;;;;;36.20;32.90;;;22.20;99.90;;;;;;6185879;23;20451;-70
2021/07/14 07:23:31;;;;;;;36.90;33.40;;;22.20;99.90;;;;;;6197263;23;20396;-69
2021/07/14 07:25:59;;;;;;;35.83;31.90;;;22.20;99.90;;;;;;6196595;23;20396;-69
2021/07/14 07:28:34;;;;;;;31.87;28.60;;;22.20;99.90;;;;;;6160809;23;20408;-69
2021/07/14 07:31:04;;;;;;;31.73;28.70;;;22.20;99.90;;;;;;6160108;23;20439;-69
2021/07/14 07:33:32;;;;;;;31.20;28.30;;;22.20;99.90;;;;;;6196042;23;20380;-69
2021/07/14 07:36:00;;;;;;;29.90;27.07;;;22.30;99.90;;;;;;6196109;23;20403;-69
2021/07/14 07:38:29;;;;;;;30.50;27.63;;;22.30;99.90;;;;;;6196255;23;20432;-67
2021/07/14 07:40:58;;;;;;;29.33;26.53;;;22.30;99.90;;;;;;6195954;23;20491;-67
2021/07/14 07:43:28;;;;;;;32.10;28.90;;;22.30;99.90;;;;;;6196017;23;20407;-67
2021/07/14 07:45:57;;;;;;;30.07;27.30;;;22.30;99.90;;;;;;6196353;23;20415;-67
2021/07/14 07:48:26;;;;;;;31.90;28.67;;;22.30;99.90;;;;;;6196512;23;20424;-69
2021/07/14 07:50:59;;;;;;;33.30;30.08;;;22.30;99.90;;;;;;6157933;23;20414;-69
2021/07/14 07:53:27;;;;;;;28.47;25.77;;;22.40;99.90;;;;;;6196649;23;20160;-69
2021/07/14 07:55:56;;;;;;;29.27;26.37;;;22.40;99.90;;;;;;6159314;23;20895;-69
2021/07/14 07:58:24;;;;;;;31.85;28.75;;;22.40;99.90;;;;;;6195206;23;20414;-69
2021/07/14 08:00:54;;;;;;;33.07;29.87;;;22.50;99.90;;;;;;6159337;23;20870;-69
2021/07/14 08:03:23;;;;;;;30.87;27.83;;;22.40;99.90;;;;;;6195765;23;20463;-70
2021/07/14 08:05:51;;;;;;;29.83;26.97;;;22.50;99.90;;;;;;6195976;23;20500;-70
2021/07/14 08:08:20;;;;;;;33.77;30.70;;;22.40;99.90;;;;;;6195940;23;20724;-69
2021/07/14 08:10:49;;;;;;;31.87;28.77;;;22.40;99.90;;;;;;6159225;23;20766;-69
2021/07/14 08:13:18;;;;;;;30.87;27.87;;;22.40;99.90;;;;;;6196089;23;20487;-70
2021/07/14 08:15:47;;;;;;;31.70;28.57;;;22.40;99.90;;;;;;6196407;23;20396;-70
2021/07/14 08:18:16;;;;;;;30.77;27.87;;;22.50;99.90;;;;;;6195938;23;20432;-70
2021/07/14 08:20:46;;;;;;;32.30;29.07;;;22.50;99.90;;;;;;6196268;23;20733;-70
2021/07/14 08:23:15;;;;;;;31.07;28.23;;;22.50;99.90;;;;;;6195988;23;20400;-70
2021/07/14 08:25:43;;;;;;;32.57;29.47;;;22.50;99.90;;;;;;6196647;23;20730;-70
2021/07/14 08:28:12;;;;;;;32.47;29.37;;;22.50;99.90;;;;;;6196367;23;20400;-70
2021/07/14 08:30:40;;;;;;;31.33;28.30;;;22.50;99.90;;;;;;6196199;23;20746;-70
2021/07/14 08:33:08;;;;;;;32.43;29.23;;;22.60;99.90;;;;;;6196529;23;20404;-70
2021/07/14 08:35:40;;;;;;;33.70;30.37;;;22.60;99.90;;;;;;6196980;23;20399;-70
2021/07/14 08:38:09;;;;;;;32.03;29.00;;;22.60;99.90;;;;;;6160316;23;20795;-71
2021/07/14 08:40:38;;;;;;;31.77;28.77;;;22.60;99.90;;;;;;6159135;23;20803;-71
2021/07/14 08:43:07;;;;;;;32.87;29.87;;;22.70;99.90;;;;;;6160315;23;20451;-71
2021/07/14 08:45:37;;;;;;;32.67;29.37;;;22.70;99.90;;;;;;6197084;23;20392;-71
2021/07/14 08:48:06;;;;;;;34.23;30.93;;;22.80;99.90;;;;;;6197272;23;20428;-71
2021/07/14 08:50:42;;;;;;;31.43;28.43;;;22.70;99.90;;;;;;6186638;23;20448;-71
2021/07/14 08:53:16;;;;;;;31.60;28.67;;;22.80;99.90;;;;;;6196945;23;20416;-71
2021/07/14 08:55:47;;;;;;;32.57;29.57;;;22.70;99.90;;;;;;6197131;23;20703;-71
2021/07/14 08:58:17;;;;;;;32.03;28.97;;;22.70;99.90;;;;;;6160466;23;20465;-72
2021/07/14 09:00:47;;;;;;;31.77;28.47;;;22.70;99.90;;;;;;6196878;23;20438;-71
2021/07/14 09:03:16;;;;;;;33.00;29.90;;;22.70;99.90;;;;;;6197220;23;20373;-71
2021/07/14 09:05:46;;;;;;;31.23;28.10;;;22.70;99.90;;;;;;6160241;23;20419;-71
2021/07/14 09:08:14;;;;;;;31.67;28.77;;;22.70;99.90;;;;;;6196830;23;20471;-71
2021/07/14 09:10:45;;;;;;;34.77;31.27;;;22.70;99.90;;;;;;6195990;23;20524;-71
2021/07/14 09:13:14;;;;;;;33.97;30.50;;;22.70;99.90;;;;;;6196585;23;20408;-70
2021/07/14 09:15:48;;;;;;;34.40;30.97;;;22.70;99.90;;;;;;6160557;23;20404;-71
2021/07/14 09:18:20;;;;;;;32.27;28.97;;;22.60;99.90;;;;;;6197522;23;20471;-71
2021/07/14 09:20:50;;;;;;;35.17;31.53;;;22.70;99.90;;;;;;6196985;23;20440;-71
2021/07/14 09:27:18;;;;;;;36.45;32.97;;;22.60;99.90;;;;;;6053143;23;20421;-77
2021/07/14 09:30:05;;;;;;;34.97;31.37;;;22.60;99.90;;;;;;6044873;23;20211;-77
2021/07/14 09:32:44;;;;;;;35.30;31.90;;;22.70;99.90;;;;;;6161629;23;20399;-77
2021/07/14 09:35:22;;;;;;;37.70;34.17;;;22.60;99.90;;;;;;6161261;23;20454;-77
2021/07/14 09:37:52;;;;;;;35.73;32.33;;;22.70;99.90;;;;;;6189244;23;20850;-78
2021/07/14 09:40:21;;;;;;;36.40;32.70;;;22.70;99.90;;;;;;6162476;23;20459;-78
2021/07/14 09:42:55;;;;;;;35.47;31.97;;;22.70;99.90;;;;;;6161029;23;20412;-77
2021/07/14 09:45:42;;;;;;;36.73;33.20;;;22.60;99.90;;;;;;6161518;23;20790;-76
2021/07/14 09:48:13;;;;;;;36.67;33.30;;;22.70;99.90;;;;;;6160325;23;20439;-77
2021/07/14 09:50:43;;;;;;;37.13;33.37;;;22.70;99.90;;;;;;6160445;23;20468;-76
2021/07/14 09:53:16;;;;;;;41.27;36.93;;;22.60;99.90;;;;;;6197375;23;20702;-78
2021/07/14 09:55:44;;;;;;;40.07;36.17;;;22.60;99.90;;;;;;6161431;23;20408;-77
2021/07/14 09:58:15;;;;;;;36.17;32.73;;;22.60;99.90;;;;;;6160696;23;20688;-77
2021/07/14 10:00:47;;;;;;;37.23;33.70;;;22.60;99.90;;;;;;6160759;23;20539;-77
2021/07/14 10:03:27;;;;;;;40.23;36.30;;;22.60;99.90;;;;;;6197162;23;20459;-77
2021/07/14 10:06:08;;;;;;;39.00;35.20;;;22.60;99.90;;;;;;6161194;23;20790;-77
2021/07/14 10:08:39;;;;;;;38.30;34.70;;;22.60;99.90;;;;;;6160647;23;20408;-77
2021/07/14 10:11:10;;;;;;;36.80;33.40;;;22.60;99.90;;;;;;6160575;23;20526;-77
2021/07/14 10:13:39;;;;;;;38.33;34.57;;;22.60;99.90;;;;;;6160924;23;20411;-77
2021/07/14 10:16:07;;;;;;;37.10;33.53;;;22.60;99.90;;;;;;6160111;23;20428;-77
2021/07/14 10:19:05;;;;;;;37.97;34.30;;;22.50;99.90;;;;;;6196052;23;20423;-76
2021/07/14 10:21:37;;;;;;;33.33;30.20;;;22.60;99.90;;;;;;6159978;23;20197;-77
2021/07/14 10:24:10;;;;;;;32.60;29.50;;;22.50;99.90;;;;;;6196465;23;20384;-77
2021/07/14 10:26:40;;;;;;;30.30;27.60;;;22.50;99.90;;;;;;6160043;23;20843;-77
2021/07/14 10:29:09;;;;;;;31.20;28.30;;;22.50;99.90;;;;;;6160041;23;20451;-77
2021/07/14 10:31:38;;;;;;;31.50;28.60;;;22.50;99.90;;;;;;6159924;23;20446;-77
2021/07/14 10:34:08;;;;;;;31.77;28.80;;;22.50;99.90;;;;;;6160104;23;20424;-77
2021/07/14 10:36:59;;;;;;;31.53;28.60;;;22.50;99.90;;;;;;6160343;23;20511;-77
2021/07/14 10:39:56;;;;;;;30.07;27.23;;;22.50;99.90;;;;;;6196882;23;20440;-77
2021/07/14 10:42:26;;;;;;;32.93;29.63;;;22.50;99.90;;;;;;6160128;23;20774;-77
2021/07/14 10:44:54;;;;;;;32.57;29.67;;;22.50;99.90;;;;;;6159861;23;20502;-77
2021/07/14 10:47:22;;;;;;;34.37;31.23;;;22.50;99.90;;;;;;6160221;23;20456;-76
2021/07/14 10:49:52;;;;;;;34.77;31.47;;;22.50;99.90;;;;;;6160552;23;20440;-76
2021/07/14 10:52:21;;;;;;;35.47;32.07;;;22.50;99.90;;;;;;6160130;23;20456;-77
2021/07/14 10:54:50;;;;;;;36.30;32.90;;;22.60;99.90;;;;;;6160122;23;20414;-76
2021/07/14 10:57:21;;;;;;;32.20;29.00;;;22.50;99.90;;;;;;6196197;23;20400;-76
2021/07/14 10:59:51;;;;;;;32.80;29.80;;;22.50;99.90;;;;;;6196138;23;20470;-77
2021/07/14 11:02:39;;;;;;;31.60;28.60;;;22.50;99.90;;;;;;6159893;23;20506;-76
2021/07/14 11:05:08;;;;;;;31.47;28.47;;;22.50;99.90;;;;;;6159722;23;20895;-77
2021/07/14 11:07:47;;;;;;;31.77;28.73;;;22.50;99.90;;;;;;6159816;23;20412;-77
2021/07/14 11:10:37;;;;;;;32.90;30.00;;;22.40;99.90;;;;;;6159822;23;20440;-77
2021/07/14 11:13:31;;;;;;;32.13;28.90;;;22.40;99.90;;;;;;6159911;23;20451;-77
2021/07/14 11:16:32;;;;;;;30.43;27.70;;;22.40;99.90;;;;;;6145651;23;20508;-76
2021/07/14 11:19:10;;;;;;;32.17;29.23;;;22.40;99.90;;;;;;6160094;23;20420;-77
2021/07/14 11:21:57;;;;;;;30.60;27.73;;;22.40;99.90;;;;;;6160382;23;20472;-77
2021/07/14 11:27:52;;;;;;;28.93;26.40;;;22.40;99.90;;;;;;6186727;23;20471;-77
2021/07/14 11:30:43;;;;;;;28.50;25.77;;;22.40;99.90;;;;;;6159452;23;20435;-77
2021/07/14 11:33:24;;;;;;;32.70;29.60;;;22.40;99.90;;;;;;6180279;23;20412;-76
2021/07/14 11:35:55;;;;;;;31.40;28.63;;;22.30;99.90;;;;;;6159496;23;20483;-76
2021/07/14 11:38:27;;;;;;;33.27;30.17;;;22.30;99.90;;;;;;6196093;23;20807;-76
2021/07/14 11:41:00;;;;;;;30.23;27.33;;;22.30;99.90;;;;;;6185972;23;20436;-76
2021/07/14 11:43:31;;;;;;;31.57;28.60;;;22.30;99.90;;;;;;6195556;23;20871;-76
2021/07/14 11:46:07;;;;;;;32.07;29.17;;;22.30;99.90;;;;;;6196178;23;20464;-76
2021/07/14 11:48:37;;;;;;;32.57;29.50;;;22.30;99.90;;;;;;6159758;23;20885;-76
2021/07/14 11:51:09;;;;;;;30.90;28.07;;;22.40;99.90;;;;;;6196000;23;20416;-76
2021/07/14 11:53:43;;;;;;;32.43;29.40;;;22.40;99.90;;;;;;6159381;23;20411;-76
2021/07/14 11:56:14;;;;;;;32.92;29.98;;;22.40;99.90;;;;;;6158895;23;20423;-76
2021/07/14 11:59:08;;;;;;;31.37;28.20;;;22.40;99.90;;;;;;6159617;23;20499;-76
2021/07/14 12:02:03;;;;;;;33.40;30.30;;;22.40;99.90;;;;;;6185816;23;20447;-76
2021/07/14 12:04:34;;;;;;;34.85;31.75;;;22.40;99.90;;;;;;6184897;23;20873;-76
2021/07/14 12:07:14;;;;;;;31.07;28.27;;;22.50;99.90;;;;;;6159300;23;20169;-76
2021/07/14 12:09:45;;;;;;;32.57;29.47;;;22.50;99.90;;;;;;6159342;23;20416;-76
2021/07/14 12:12:26;;;;;;;34.27;31.37;;;22.60;99.90;;;;;;6159299;23;20428;-76
2021/07/14 12:14:55;;;;;;;35.00;31.80;;;22.60;99.90;;;;;;6159016;23;20800;-76
2021/07/14 12:17:27;;;;;;;33.90;30.90;;;22.70;99.90;;;;;;6195824;23;20392;-76
2021/07/14 12:19:57;;;;;;;31.77;28.73;;;22.80;99.90;;;;;;6158957;23;20531;-76
2021/07/14 12:22:28;;;;;;;32.27;29.53;;;22.80;99.90;;;;;;6159231;23;20526;-76
2021/07/14 12:24:57;;;;;;;32.80;29.90;;;22.80;99.90;;;;;;6159030;23;20452;-76
2021/07/14 12:27:27;;;;;;;33.33;30.23;;;22.80;99.90;;;;;;6159010;23;20736;-76
2021/07/14 12:29:58;;;;;;;33.03;30.00;;;22.90;99.90;;;;;;6158937;23;20436;-76
2021/07/14 12:32:37;;;;;;;34.17;30.97;;;22.90;99.90;;;;;;6159133;23;20428;-76
2021/07/14 12:35:12;;;;;;;37.03;33.20;;;23.00;99.90;;;;;;6159259;23;20412;-76
2021/07/14 12:37:49;;;;;;;34.17;31.07;;;23.00;99.90;;;;;;6195790;23;20426;-76
2021/07/14 12:40:24;;;;;;;33.00;29.90;;;23.00;99.90;;;;;;6195681;23;20928;-76
2021/07/14 12:42:53;;;;;;;33.17;30.30;;;23.00;99.90;;;;;;6195782;23;20381;-76
2021/07/14 12:45:27;;;;;;;34.77;31.27;;;23.00;99.90;;;;;;6195363;23;20887;-76
2021/07/14 12:47:57;;;;;;;36.05;32.75;;;23.00;99.90;;;;;;6158048;23;20494;-76
2021/07/14 12:50:27;;;;;;;33.13;30.03;;;23.00;99.90;;;;;;6195241;23;20658;-76
2021/07/14 12:52:58;;;;;;;33.80;30.57;;;23.00;99.90;;;;;;6159935;23;20412;-77
2021/07/14 12:55:31;;;;;;;32.30;29.37;;;23.00;99.90;;;;;;6196071;23;20387;-76
2021/07/14 12:58:04;;;;;;;32.67;29.73;;;23.00;99.90;;;;;;6161022;23;20412;-77
2021/07/14 13:00:34;;;;;;;33.60;30.37;;;23.00;99.90;;;;;;6197439;23;20496;-76
2021/07/14 13:03:07;;;;;;;32.83;29.83;;;23.00;99.90;;;;;;6197263;23;20458;-76
2021/07/14 13:05:39;;;;;;;32.27;29.23;;;23.00;99.90;;;;;;6160914;23;20419;-76
2021/07/14 13:08:11;;;;;;;31.60;28.60;;;23.00;99.90;;;;;;6161078;23;20495;-76
2021/07/14 13:10:39;;;;;;;32.77;29.57;;;23.00;99.90;;;;;;6197400;23;20427;-76
2021/07/14 13:13:11;;;;;;;32.33;29.20;;;23.00;99.90;;;;;;6160786;23;20436;-76